WetterOnline ( https://www.wetteronline.at )

Wetter aktuell Erzgebirge/Ost (in 800m)

Aktuelles Wetter: Zinnwald (882m)

6-stündlich | Neueste Meldungen
Ortszeit Temperatur Wetter
Mi, 19.06. 8:00 18.3° C fast wolkenlos
Mi, 19.06. 2:00 15.9° C wolkig
Di, 18.06. 20:00 19.7° C wolkenlos
Di, 18.06. 14:00 20.4° C wolkenlos
Di, 18.06. 8:00 15.6° C wolkenlos
Di, 18.06. 2:00 14.2° C bewölkt
Mo, 17.06. 20:00 18.3° C fast wolkenlos
Mo, 17.06. 14:00 17.9° C wolkig
Ortszeit Temperatur Wetter
Mi, 19.06. 10:00 19.4° C leicht bewölkt
Mi, 19.06. 9:50 19.4° C leicht bewölkt
Mi, 19.06. 9:40 19.2° C fast wolkenlos
Mi, 19.06. 9:30 19.1° C wolkenlos
Mi, 19.06. 9:20 19.1° C wolkenlos
Mi, 19.06. 9:10 19.3° C wolkenlos
Mi, 19.06. 9:00 19.2° C wolkenlos
Mi, 19.06. 8:30 18.5° C wolkenlos
Mi, 19.06. 8:00 18.3° C fast wolkenlos
Mi, 19.06. 7:30 18.0° C fast wolkenlos
Mi, 19.06. 7:00 16.8° C leicht bewölkt
Ortszeit Relative Feuchte Sichtweite
Mi, 19.06. 8:00 74% 19 km
Mi, 19.06. 2:00 73% 35 km
Di, 18.06. 20:00 55% 40 km
Di, 18.06. 14:00 51% 26 km
Di, 18.06. 8:00 70% 40 km
Di, 18.06. 2:00 73% 60 km
Mo, 17.06. 20:00 58% 50 km
Mo, 17.06. 14:00 63% 50 km
Ortszeit Relative Feuchte Sichtweite
Mi, 19.06. 10:00 70% 25 km
Mi, 19.06. 9:50 70% -
Mi, 19.06. 9:40 71% -
Mi, 19.06. 9:30 72% 16 km
Mi, 19.06. 9:20 72% -
Mi, 19.06. 9:10 71% -
Mi, 19.06. 9:00 73% 20 km
Mi, 19.06. 8:30 74% 21 km
Mi, 19.06. 8:00 74% 19 km
Mi, 19.06. 7:30 75% 28 km
Mi, 19.06. 7:00 77% 28 km
Ortszeit Niederschlagsmenge Niederschlagsart
Mi, 19.06. 8:00 0.0 l/m2 in 12 Std. -
Mi, 19.06. 2:00 0.0 l/m2 in 6 Std. -
Di, 18.06. 20:00 0.0 l/m2 in 12 Std. -
Di, 18.06. 14:00 0.0 l/m2 in 6 Std. -
Di, 18.06. 8:00 0.0 l/m2 in 12 Std. -
Di, 18.06. 2:00 0.0 l/m2 in 6 Std. -
Mo, 17.06. 20:00 0.0 l/m2 in 12 Std. -
Mo, 17.06. 14:00 0.0 l/m2 in 6 Std. -
Ortszeit Niederschlagsmenge Niederschlagsart
Mi, 19.06. 10:00 0.0 l/m2 in 1 Std. -
Mi, 19.06. 9:50 keine Meldung -
Mi, 19.06. 9:40 keine Meldung -
Mi, 19.06. 9:30 0.0 l/m2 in 1 Std. -
Mi, 19.06. 9:20 keine Meldung -
Mi, 19.06. 9:10 keine Meldung -
Mi, 19.06. 9:00 0.0 l/m2 in 1 Std. -
Mi, 19.06. 8:30 0.0 l/m2 in 1 Std. -
Mi, 19.06. 8:00 0.0 l/m2 in 1 Std. -
Mi, 19.06. 7:30 0.0 l/m2 in 1 Std. -
Mi, 19.06. 7:00 0.0 l/m2 in 1 Std. -
Ortszeit Stärke Spitze Richtung
km/h Bft. km/h Grad Sektor
Mi, 19.06. 8:00 14 3 25 170° S
Mi, 19.06. 2:00 15 3 22 170° S
Di, 18.06. 20:00 13 3 30 140° SO
Di, 18.06. 14:00 14 3 36 200° S
Di, 18.06. 8:00 13 3 28 170° S
Di, 18.06. 2:00 20 4 30 150° SO
Mo, 17.06. 20:00 11 2 32 70° O
Mo, 17.06. 14:00 14 3 29 40° NO
Ortszeit Stärke Spitze Richtung
km/h Bft. km/h Grad Sektor
Mi, 19.06. 10:00 14 3 25 170° S
Mi, 19.06. 9:50 14 3 - 170° S
Mi, 19.06. 9:40 14 3 - 170° S
Mi, 19.06. 9:30 14 3 22 170° S
Mi, 19.06. 9:20 14 3 - 170° S
Mi, 19.06. 9:10 13 3 - 160° S
Mi, 19.06. 9:00 11 2 22 160° S
Mi, 19.06. 8:30 15 3 20 170° S
Mi, 19.06. 8:00 14 3 18 170° S
Mi, 19.06. 7:30 11 2 14 170° S
Mi, 19.06. 7:00 11 2 14 160° S
Ortszeit Untergrenze Bedeckung Gattung
total tief tief mittel hoch
Mi, 19.06. 8:00 6300 m 1/8 1/8 - - -
Mi, 19.06. 2:00 1800 m 6/8 6/8 - - -
Di, 18.06. 20:00 - 0/8 0/8 - - -
Di, 18.06. 14:00 - 0/8 0/8 - - -
Di, 18.06. 8:00 - 0/8 0/8 - - -
Di, 18.06. 2:00 1800 m 7/8 7/8 - - -
Mo, 17.06. 20:00 1200 m 1/8 1/8 - - -
Mo, 17.06. 14:00 1110 m 5/8 5/8 - - -
Ortszeit Bedeckungsgrad in Achtel und Wolkenuntergrenze
Mi, 19.06. 10:00 4(5400m)
Mi, 19.06. 9:50 4(5400m)
Mi, 19.06. 9:40 1(5400m)
Mi, 19.06. 9:30 keine Wolken
Mi, 19.06. 9:20 keine Wolken
Mi, 19.06. 9:10 keine Wolken
Mi, 19.06. 9:00 keine Wolken
Mi, 19.06. 8:30 keine Wolken
Mi, 19.06. 8:00 1(6300m)
Mi, 19.06. 7:30 1(6600m)
Mi, 19.06. 7:00 3(6600m)
Ortszeit Stationsdruck (hPa) Tendenz (hPa in 3 Std.)
Mi, 19.06. 8:00 914 - 0,5
Mi, 19.06. 2:00 916 - 0,8
Di, 18.06. 20:00 917 - 0,8
Di, 18.06. 14:00 918 - 1,2
Di, 18.06. 8:00 920 + 0,2
Di, 18.06. 2:00 921 - 0,2
Mo, 17.06. 20:00 921 - 0,8
Mo, 17.06. 14:00 922 - 0,2
Ortszeit Stationsdruck (hPa) Tendenz (hPa in 3 Std.)
Mi, 19.06. 10:00 914 - 0,2
Mi, 19.06. 9:50 914 keine Meldung
Mi, 19.06. 9:40 914 keine Meldung
Mi, 19.06. 9:30 914 - 0,2
Mi, 19.06. 9:20 914 keine Meldung
Mi, 19.06. 9:10 914 keine Meldung
Mi, 19.06. 9:00 914 - 0,3
Mi, 19.06. 8:30 914 - 0,4
Mi, 19.06. 8:00 914 - 0,5
Mi, 19.06. 7:30 914 - 0,6
Mi, 19.06. 7:00 914 - 0,6
Ortszeit Schneehöhe (cm)
Mi, 19.06. 8:00 0
Mi, 19.06. 2:00 0
Di, 18.06. 20:00 0
Di, 18.06. 14:00 0
Di, 18.06. 8:00 0
Di, 18.06. 2:00 0
Mo, 17.06. 20:00 0
Mo, 17.06. 14:00 0
Ortszeit Schneehöhe (cm)
Mi, 19.06. 10:00 -
Mi, 19.06. 9:50 0
Mi, 19.06. 9:40 0
Mi, 19.06. 9:30 0
Mi, 19.06. 9:20 0
Mi, 19.06. 9:10 0
Mi, 19.06. 9:00 0
Mi, 19.06. 8:30 0
Mi, 19.06. 8:00 0
Mi, 19.06. 7:30 0
Mi, 19.06. 7:00 0
Link zu dieser Seite / Seite empfehlen

Das Wetter in ...